createdAt,value
2018-09-05T00:01:52.180Z,38.60
2018-09-05T00:04:22.001Z,36.93
2018-09-05T00:06:51.698Z,38.40
2018-09-05T00:09:21.763Z,39.63
2018-09-05T00:11:51.401Z,33.37
2018-09-05T00:14:21.197Z,36.23
2018-09-05T00:16:50.958Z,36.65
2018-09-05T00:19:20.684Z,35.63
2018-09-05T00:21:50.434Z,38.57
2018-09-05T00:24:20.062Z,37.63
2018-09-05T00:26:49.727Z,34.10
2018-09-05T00:29:19.389Z,35.20
2018-09-05T00:31:49.151Z,39.10
2018-09-05T00:34:18.775Z,32.73
2018-09-05T00:36:48.568Z,33.50
2018-09-05T00:39:18.306Z,33.70
2018-09-05T00:41:48.193Z,38.42
2018-09-05T00:44:17.864Z,36.87
2018-09-05T00:46:47.736Z,36.08
2018-09-05T00:49:17.461Z,33.57
2018-09-05T00:51:47.340Z,31.60
2018-09-05T00:54:17.094Z,34.58
2018-09-05T00:56:46.963Z,35.13
2018-09-05T00:59:16.693Z,35.50
2018-09-05T01:01:46.623Z,36.55
2018-09-05T01:04:16.274Z,36.73
2018-09-05T01:06:45.833Z,35.83
2018-09-05T01:09:15.590Z,33.23
2018-09-05T01:11:45.391Z,32.97
2018-09-05T01:14:15.157Z,33.97
2018-09-05T01:16:45.034Z,29.17
2018-09-05T01:19:14.643Z,34.95
2018-09-05T01:21:44.337Z,30.43
2018-09-05T01:24:13.919Z,30.77
2018-09-05T01:26:43.721Z,38.45
2018-09-05T01:29:13.457Z,35.73
2018-09-05T01:31:43.420Z,32.73
2018-09-05T01:34:13.301Z,39.03
2018-09-05T01:36:43.030Z,33.87
2018-09-05T01:39:12.787Z,33.00
2018-09-05T01:41:42.519Z,34.98
2018-09-05T01:44:12.186Z,35.58
2018-09-05T01:46:41.781Z,34.30
2018-09-05T01:49:11.578Z,33.50
2018-09-05T01:51:41.578Z,29.53
2018-09-05T01:54:11.263Z,31.43
2018-09-05T01:56:40.981Z,27.07
2018-09-05T01:59:10.595Z,37.93
2018-09-05T02:01:40.222Z,29.10
2018-09-05T02:04:10.018Z,32.85
2018-09-05T02:06:39.869Z,33.30
2018-09-05T02:09:12.184Z,36.15
2018-09-05T02:11:41.976Z,38.63
2018-09-05T02:14:12.593Z,35.30
2018-09-05T02:16:43.062Z,34.13
2018-09-05T02:19:12.727Z,37.17
2018-09-05T02:21:42.402Z,32.00
2018-09-05T02:24:12.410Z,30.27
2018-09-05T02:26:42.106Z,30.93
2018-09-05T02:29:11.543Z,27.13
2018-09-05T02:31:41.042Z,33.10
2018-09-05T02:34:10.797Z,31.57
2018-09-05T02:36:40.566Z,32.73
2018-09-05T02:39:11.607Z,35.52
2018-09-05T02:41:41.388Z,33.80
2018-09-05T02:44:16.263Z,28.47
2018-09-05T02:46:46.409Z,34.50
2018-09-05T02:49:16.207Z,28.53
2018-09-05T02:51:46.093Z,32.60
2018-09-05T02:54:15.844Z,29.60
2018-09-05T02:56:45.551Z,31.83
2018-09-05T02:59:15.435Z,32.33
2018-09-05T03:01:44.973Z,31.57
2018-09-05T03:04:14.634Z,38.00
2018-09-05T03:06:44.458Z,34.37
2018-09-05T03:09:14.044Z,31.00
2018-09-05T03:11:43.752Z,30.73
2018-09-05T03:14:13.485Z,31.77
2018-09-05T03:16:43.226Z,30.37
2018-09-05T03:19:13.029Z,31.37
2018-09-05T03:21:42.660Z,29.00
2018-09-05T03:24:12.279Z,33.00
2018-09-05T03:26:42.016Z,35.90
2018-09-05T03:29:11.952Z,27.90
2018-09-05T03:31:41.901Z,29.77
2018-09-05T03:34:11.665Z,34.50
2018-09-05T03:36:41.695Z,35.50
2018-09-05T03:39:12.266Z,40.07
2018-09-05T03:41:42.045Z,45.48
2018-09-05T03:44:11.715Z,36.40
2018-09-05T03:46:41.233Z,38.45
2018-09-05T03:49:10.952Z,42.45
2018-09-05T03:51:41.097Z,38.30
2018-09-05T03:54:11.052Z,32.57
2018-09-05T03:56:40.818Z,32.90
2018-09-05T03:59:10.381Z,38.33
2018-09-05T04:01:39.961Z,44.67
2018-09-05T04:04:09.825Z,57.50
2018-09-05T04:53:46.331Z,59.40
2018-09-05T04:56:16.232Z,59.97
2018-09-05T04:58:46.091Z,60.63
2018-09-05T05:01:15.696Z,89.60
2018-09-05T05:03:45.667Z,64.63
2018-09-05T05:06:15.342Z,69.05
2018-09-05T05:08:45.302Z,62.43
2018-09-05T05:11:14.986Z,59.43
2018-09-05T05:13:44.668Z,51.40
2018-09-05T05:16:14.343Z,64.90
2018-09-05T05:18:43.933Z,56.50
2018-09-05T05:21:13.793Z,61.68
2018-09-05T05:23:43.613Z,73.23
2018-09-05T05:26:13.242Z,50.53
2018-09-05T05:28:42.997Z,55.10
2018-09-05T05:31:12.506Z,51.10
2018-09-05T05:33:42.119Z,51.40
2018-09-05T05:36:11.885Z,47.97
2018-09-05T05:38:41.565Z,64.97
2018-09-05T05:41:11.289Z,81.28
2018-09-05T05:43:41.022Z,86.10
2018-09-05T05:46:11.211Z,106.23
2018-09-05T05:48:40.848Z,108.07
2018-09-05T05:51:10.480Z,114.40
2018-09-05T05:53:40.151Z,127.13
2018-09-05T05:56:10.121Z,134.67
2018-09-05T05:58:39.892Z,141.03
2018-09-05T06:01:09.618Z,162.67
2018-09-05T06:03:42.590Z,147.10
2018-09-05T06:06:12.440Z,123.60
2018-09-05T06:08:41.999Z,127.23
2018-09-05T06:11:11.676Z,110.50
2018-09-05T06:13:41.355Z,115.47
2018-09-05T06:16:11.059Z,100.13
2018-09-05T06:18:41.465Z,99.63
2018-09-05T06:21:11.277Z,95.60
2018-09-05T06:23:40.941Z,79.33
2018-09-05T06:26:10.394Z,75.67
2018-09-05T06:28:40.077Z,61.00
2018-09-05T06:31:09.829Z,50.87
2018-09-05T06:33:39.718Z,60.60
2018-09-05T06:36:09.375Z,66.37
2018-09-05T06:38:39.016Z,72.27
2018-09-05T06:41:14.730Z,55.00
2018-09-05T06:43:44.305Z,46.70
2018-09-05T06:46:14.005Z,60.90
2018-09-05T06:48:43.595Z,59.30
2018-09-05T06:51:13.296Z,67.97
2018-09-05T06:53:42.948Z,64.03
2018-09-05T06:56:12.623Z,47.80
2018-09-05T06:58:42.804Z,50.55
2018-09-05T07:01:12.429Z,47.77
2018-09-05T07:03:42.287Z,46.40
2018-09-05T07:06:12.049Z,46.58
2018-09-05T07:08:41.679Z,45.45
2018-09-05T07:11:17.974Z,43.37
2018-09-05T07:13:47.890Z,37.67
2018-09-05T07:16:17.819Z,42.25
2018-09-05T07:18:47.708Z,37.23
2018-09-05T07:21:17.573Z,32.93
2018-09-05T07:23:47.337Z,35.85
2018-09-05T07:26:16.951Z,38.07
2018-09-05T07:28:46.910Z,33.07
2018-09-05T07:31:16.817Z,38.23
2018-09-05T07:33:46.753Z,39.30
2018-09-05T07:36:16.353Z,45.93
2018-09-05T07:38:46.323Z,41.08
2018-09-05T07:41:16.093Z,43.00
2018-09-05T07:43:45.719Z,35.37
2018-09-05T07:46:15.394Z,41.90
2018-09-05T07:48:45.062Z,45.60
2018-09-05T07:51:14.891Z,39.70
2018-09-05T07:53:44.587Z,42.90
2018-09-05T07:56:14.207Z,35.43
2018-09-05T07:58:43.858Z,35.87
2018-09-05T08:01:14.474Z,32.57
2018-09-05T08:03:44.413Z,32.13
2018-09-05T08:06:14.451Z,33.97
2018-09-05T08:08:44.064Z,32.00
2018-09-05T08:11:13.844Z,34.53
2018-09-05T08:13:43.500Z,32.65
2018-09-05T08:16:13.340Z,35.10
2018-09-05T08:18:43.055Z,32.30
2018-09-05T08:21:12.676Z,33.88
2018-09-05T08:23:42.368Z,36.23
2018-09-05T08:26:12.047Z,38.30
2018-09-05T08:28:41.675Z,30.47
2018-09-05T08:31:11.181Z,36.10
2018-09-05T08:33:40.751Z,31.87
2018-09-05T08:36:10.660Z,32.57
2018-09-05T08:38:40.134Z,36.17
2018-09-05T08:41:11.268Z,39.60
2018-09-05T08:43:41.900Z,41.53
2018-09-05T08:46:11.710Z,31.93
2018-09-05T08:48:41.376Z,37.23
2018-09-05T08:51:10.987Z,36.10
2018-09-05T08:53:40.488Z,35.27
2018-09-05T08:56:10.197Z,36.10
2018-09-05T08:58:40.044Z,33.60
2018-09-05T09:01:09.794Z,32.37
2018-09-05T09:03:39.544Z,28.80
2018-09-05T09:06:09.383Z,36.07
2018-09-05T09:08:39.073Z,35.23
2018-09-05T09:11:09.068Z,34.87
2018-09-05T09:13:38.906Z,32.05
2018-09-05T09:16:09.015Z,34.13
2018-09-05T09:18:38.861Z,42.10
2018-09-05T09:21:08.525Z,34.80
2018-09-05T09:23:38.135Z,26.60
2018-09-05T09:26:08.523Z,30.67
2018-09-05T09:28:38.281Z,25.07
2018-09-05T09:31:08.534Z,25.73
2018-09-05T09:33:38.266Z,23.47
2018-09-05T09:36:08.018Z,28.80
2018-09-05T09:38:37.670Z,26.90
2018-09-05T09:41:07.337Z,23.77
2018-09-05T09:43:36.965Z,25.37
2018-09-05T09:46:06.547Z,23.40
2018-09-05T09:48:36.260Z,32.03
2018-09-05T09:51:06.140Z,29.10
2018-09-05T09:53:36.000Z,25.17
2018-09-05T09:56:05.860Z,25.17
2018-09-05T09:58:35.563Z,22.17
2018-09-05T10:01:10.244Z,24.47
2018-09-05T10:03:44.946Z,25.57
2018-09-05T10:06:19.992Z,25.67
2018-09-05T10:08:54.695Z,20.88
2018-09-05T10:11:29.477Z,22.43
2018-09-05T10:14:04.258Z,20.57
2018-09-05T10:16:39.221Z,21.03
2018-09-05T10:19:10.231Z,19.13
2018-09-05T10:21:40.040Z,20.87
2018-09-05T10:24:09.715Z,19.53
2018-09-05T10:26:39.436Z,18.30
2018-09-05T10:29:09.158Z,16.87
2018-09-05T10:31:39.133Z,15.87
2018-09-05T10:34:09.051Z,18.17
2018-09-05T10:36:38.702Z,16.07
2018-09-05T10:39:10.548Z,15.60
2018-09-05T10:41:40.648Z,13.07
2018-09-05T10:44:10.608Z,14.37
2018-09-05T10:46:40.367Z,12.17
2018-09-05T10:49:10.064Z,15.90
2018-09-05T10:51:44.953Z,16.17
2018-09-05T10:54:14.610Z,17.10
2018-09-05T10:56:44.575Z,14.33
2018-09-05T10:59:14.621Z,14.70
2018-09-05T11:01:44.304Z,15.17
2018-09-05T11:04:14.041Z,15.20
2018-09-05T11:06:43.921Z,10.47
2018-09-05T11:09:13.646Z,14.17
2018-09-05T11:11:43.352Z,11.30
2018-09-05T11:14:12.893Z,13.93
2018-09-05T11:16:42.764Z,19.23
2018-09-05T11:19:12.451Z,17.03
2018-09-05T11:21:42.025Z,12.40
2018-09-05T11:24:11.823Z,13.23
2018-09-05T11:26:41.482Z,12.50
2018-09-05T11:29:11.229Z,16.77
2018-09-05T11:31:41.004Z,12.40
2018-09-05T11:34:11.451Z,16.70
2018-09-05T11:36:41.149Z,14.87
2018-09-05T11:39:13.896Z,22.85
2018-09-05T11:41:43.599Z,15.67
2018-09-05T11:44:13.292Z,18.40
2018-09-05T11:46:43.077Z,20.20
2018-09-05T11:49:12.760Z,18.00
2018-09-05T11:51:42.286Z,14.97
2018-09-05T11:54:11.888Z,21.00
2018-09-05T11:56:41.536Z,14.10
2018-09-05T11:59:11.273Z,16.73
2018-09-05T12:01:41.121Z,15.97
2018-09-05T12:04:10.909Z,12.93
2018-09-05T12:06:40.762Z,11.00
2018-09-05T12:09:12.071Z,14.00
2018-09-05T12:11:41.772Z,14.80
2018-09-05T12:14:11.656Z,17.43
2018-09-05T12:16:41.452Z,10.80
2018-09-05T12:19:11.211Z,19.77
2018-09-05T12:21:40.887Z,14.20
2018-09-05T12:24:10.838Z,14.07
2018-09-05T12:26:40.517Z,16.00
2018-09-05T12:29:12.321Z,13.27
2018-09-05T12:31:42.904Z,15.37
2018-09-05T12:34:13.492Z,13.13
2018-09-05T12:36:43.102Z,17.87
2018-09-05T12:39:14.913Z,16.67
2018-09-05T12:41:44.667Z,16.80
2018-09-05T12:44:14.497Z,15.67
2018-09-05T12:46:44.137Z,16.27
2018-09-05T12:49:13.723Z,10.63
2018-09-05T12:51:43.358Z,14.70
2018-09-05T12:54:13.475Z,12.33
2018-09-05T12:56:43.544Z,15.23
2018-09-05T12:59:13.288Z,13.73
2018-09-05T13:01:43.030Z,17.47
2018-09-05T13:04:12.658Z,11.37
2018-09-05T13:06:42.347Z,11.97
2018-09-05T13:09:13.880Z,15.60
2018-09-05T13:11:44.162Z,16.10
2018-09-05T13:14:13.988Z,15.43
2018-09-05T13:16:43.675Z,18.77
2018-09-05T13:19:16.207Z,13.17
2018-09-05T13:21:45.925Z,9.20
2018-09-05T13:24:15.607Z,12.47
2018-09-05T13:26:45.303Z,12.37
2018-09-05T13:29:15.026Z,17.37
2018-09-05T13:31:44.714Z,13.83
2018-09-05T13:34:14.223Z,11.43
2018-09-05T13:36:43.887Z,13.73
2018-09-05T13:39:13.527Z,18.30
2018-09-05T13:41:43.200Z,11.87
2018-09-05T13:44:12.992Z,11.03
2018-09-05T13:46:42.689Z,18.33
2018-09-05T13:49:12.357Z,18.10
2018-09-05T13:51:42.209Z,10.27
2018-09-05T13:54:11.967Z,15.03
2018-09-05T13:56:41.551Z,10.20
2018-09-05T13:59:11.258Z,15.23
2018-09-05T14:01:40.942Z,20.67
2018-09-05T14:04:10.498Z,16.33
2018-09-05T14:06:40.177Z,21.63
2018-09-05T14:09:12.045Z,12.97
2018-09-05T14:11:42.010Z,19.17
2018-09-05T14:14:11.511Z,13.70
2018-09-05T14:16:41.191Z,15.73
2018-09-05T14:19:10.996Z,17.83
2018-09-05T14:21:40.762Z,16.00
2018-09-05T14:24:10.658Z,13.23
2018-09-05T14:26:40.444Z,11.93
2018-09-05T14:29:10.137Z,18.63
2018-09-05T14:31:39.924Z,17.37
2018-09-05T14:34:09.591Z,15.67
2018-09-05T14:36:39.405Z,25.60
2018-09-05T14:39:11.687Z,18.57
2018-09-05T14:41:41.641Z,10.43
2018-09-05T14:44:11.300Z,17.07
2018-09-05T14:46:41.023Z,17.73
2018-09-05T14:49:10.739Z,14.90
2018-09-05T14:51:40.488Z,14.80
2018-09-05T14:54:10.162Z,13.03
2018-09-05T14:56:39.906Z,13.60
2018-09-05T14:59:09.730Z,20.93
2018-09-05T15:01:39.358Z,23.13
2018-09-05T15:04:09.191Z,17.87
2018-09-05T15:06:38.966Z,13.30
2018-09-05T15:09:11.590Z,14.30
2018-09-05T15:11:41.097Z,18.27
2018-09-05T15:14:17.366Z,15.10
2018-09-05T15:16:47.112Z,10.50
2018-09-05T15:19:16.831Z,15.67
2018-09-05T15:21:46.611Z,15.63
2018-09-05T15:24:16.179Z,15.13
2018-09-05T15:26:45.655Z,15.77
2018-09-05T15:29:15.268Z,18.40
2018-09-05T15:31:44.913Z,18.43
2018-09-05T15:34:14.725Z,14.40
2018-09-05T15:36:44.428Z,14.03
2018-09-05T15:39:14.340Z,19.32
2018-09-05T15:41:44.375Z,17.63
2018-09-05T15:44:14.125Z,37.20
2018-09-05T15:46:44.020Z,15.80
2018-09-05T15:49:13.855Z,18.67
2018-09-05T15:51:43.404Z,14.63
2018-09-05T15:54:13.110Z,22.47
2018-09-05T15:56:42.894Z,15.13
2018-09-05T15:59:12.474Z,13.53
2018-09-05T16:01:42.227Z,15.83
2018-09-05T16:04:11.998Z,18.57
2018-09-05T16:06:41.591Z,20.87
2018-09-05T16:09:12.067Z,22.57
2018-09-05T16:11:41.660Z,14.70
2018-09-05T16:14:11.239Z,15.10
2018-09-05T16:16:40.804Z,23.12
2018-09-05T16:19:10.418Z,22.90
2018-09-05T16:21:40.113Z,20.47
2018-09-05T16:24:09.829Z,17.33
2018-09-05T16:26:39.414Z,13.93
2018-09-05T16:29:09.112Z,18.20
2018-09-05T16:31:39.001Z,15.00
2018-09-05T16:34:09.612Z,15.80
2018-09-05T16:36:39.353Z,19.20
2018-09-05T16:39:11.816Z,17.87
2018-09-05T16:41:42.014Z,19.20
2018-09-05T16:44:12.118Z,23.73
2018-09-05T16:46:41.770Z,18.67
2018-09-05T16:49:11.491Z,21.63
2018-09-05T16:51:41.219Z,17.53
2018-09-05T16:54:11.090Z,19.10
2018-09-05T16:56:40.728Z,21.43
2018-09-05T16:59:10.634Z,14.03
2018-09-05T17:01:40.380Z,18.77
2018-09-05T17:04:10.058Z,35.90
2018-09-05T17:06:39.790Z,20.90
2018-09-05T17:09:12.417Z,26.87
2018-09-05T17:11:42.330Z,21.97
2018-09-05T17:14:11.996Z,18.25
2018-09-05T17:16:41.668Z,14.03
2018-09-05T17:19:11.382Z,11.50
2018-09-05T17:21:40.995Z,22.83
2018-09-05T17:24:10.605Z,15.90
2018-09-05T17:26:40.208Z,13.33
2018-09-05T17:29:09.867Z,12.77
2018-09-05T17:31:39.732Z,13.73
2018-09-05T17:34:09.687Z,20.17
2018-09-05T17:36:39.370Z,15.43
2018-09-05T17:39:10.818Z,15.67
2018-09-05T17:41:40.955Z,14.83
2018-09-05T17:44:11.403Z,13.03
2018-09-05T17:46:41.050Z,14.90
2018-09-05T17:49:10.941Z,17.30
2018-09-05T17:51:40.622Z,22.80
2018-09-05T17:54:10.261Z,13.70
2018-09-05T17:56:40.049Z,19.47
2018-09-05T17:59:09.692Z,43.80
2018-09-05T18:01:39.601Z,56.63
2018-09-05T18:04:09.522Z,39.87
2018-09-05T18:06:39.477Z,33.50
2018-09-05T18:09:10.791Z,35.95
2018-09-05T18:11:40.529Z,21.00
2018-09-05T18:14:10.216Z,23.20
2018-09-05T18:16:40.093Z,19.43
2018-09-05T18:19:09.792Z,21.67
2018-09-05T18:21:39.543Z,19.47
2018-09-05T18:24:09.471Z,34.55
2018-09-05T18:26:39.080Z,24.27
2018-09-05T18:29:09.090Z,22.27
2018-09-05T18:31:39.122Z,20.27
2018-09-05T18:34:08.962Z,20.05
2018-09-05T18:36:38.931Z,18.83
2018-09-05T18:39:09.603Z,19.00
2018-09-05T18:41:39.575Z,16.80
2018-09-05T18:44:09.447Z,16.10
2018-09-05T18:46:39.139Z,18.33
2018-09-05T18:49:08.994Z,20.83
2018-09-05T18:51:39.035Z,16.50
2018-09-05T18:54:09.119Z,26.60
2018-09-05T18:56:38.844Z,25.37
2018-09-05T18:59:08.760Z,39.77
2018-09-05T19:01:38.381Z,35.77
2018-09-05T19:04:08.148Z,33.30
2018-09-05T19:06:37.822Z,25.83
2018-09-05T19:09:10.566Z,31.17
2018-09-05T19:11:40.460Z,25.87
2018-09-05T19:14:11.476Z,20.83
2018-09-05T19:16:41.050Z,23.30
2018-09-05T19:19:10.887Z,24.17
2018-09-05T19:21:40.691Z,26.65
2018-09-05T19:24:10.241Z,26.42
2018-09-05T19:26:39.897Z,23.07
2018-09-05T19:29:09.713Z,18.80
2018-09-05T19:31:39.753Z,20.13
2018-09-05T19:34:10.032Z,18.67
2018-09-05T19:36:39.714Z,16.63
2018-09-05T19:39:10.971Z,17.63
2018-09-05T19:41:41.051Z,18.70
2018-09-05T19:44:10.863Z,17.17
2018-09-05T19:46:40.577Z,19.07
2018-09-05T19:49:10.224Z,23.70
2018-09-05T19:51:39.876Z,17.17
2018-09-05T19:54:09.463Z,16.20
2018-09-05T19:56:39.287Z,19.77
2018-09-05T19:59:09.012Z,20.87
2018-09-05T20:01:38.752Z,17.73
2018-09-05T20:04:08.612Z,26.30
2018-09-05T20:06:38.435Z,38.90
2018-09-05T20:09:09.250Z,45.28
2018-09-05T20:11:38.830Z,44.50
2018-09-05T20:14:08.469Z,37.53
2018-09-05T20:16:38.135Z,35.63
2018-09-05T20:19:07.931Z,34.90
2018-09-05T20:21:37.600Z,31.03
2018-09-05T20:24:07.317Z,30.67
2018-09-05T20:26:37.051Z,34.67
2018-09-05T20:29:06.849Z,33.83
2018-09-05T20:31:36.458Z,26.83
2018-09-05T20:34:06.231Z,40.07
2018-09-05T20:36:36.004Z,31.07
2018-09-05T20:39:08.693Z,34.57
2018-09-05T20:41:38.458Z,36.30
2018-09-05T20:44:08.695Z,36.03
2018-09-05T20:46:38.781Z,35.00
2018-09-05T20:49:08.517Z,39.48
2018-09-05T20:51:38.261Z,34.60
2018-09-05T20:54:08.129Z,31.83
2018-09-05T20:56:37.987Z,38.67
2018-09-05T20:59:08.073Z,34.80
2018-09-05T21:01:37.699Z,36.53
2018-09-05T21:04:07.650Z,31.03
2018-09-05T21:06:37.539Z,34.20
2018-09-05T21:09:08.646Z,38.30
2018-09-05T21:11:38.543Z,42.00
2018-09-05T21:14:08.305Z,51.83
2018-09-05T21:16:37.930Z,56.67
2018-09-05T21:19:07.578Z,56.57
2018-09-05T21:21:37.306Z,54.70
2018-09-05T21:24:07.029Z,44.83
2018-09-05T21:26:37.165Z,44.53
2018-09-05T21:29:06.941Z,45.10
2018-09-05T21:31:36.645Z,45.63
2018-09-05T21:34:06.320Z,47.30
2018-09-05T21:36:37.078Z,41.50
2018-09-05T21:39:14.615Z,35.47
2018-09-05T21:41:45.994Z,38.70
2018-09-05T21:44:17.494Z,33.37
2018-09-05T21:46:47.753Z,28.37
2018-09-05T21:49:17.756Z,25.33
2018-09-05T21:51:47.995Z,26.47
2018-09-05T21:54:18.887Z,25.37
2018-09-05T21:56:49.481Z,27.20
2018-09-05T21:59:19.625Z,30.70
2018-09-05T22:01:49.265Z,33.10
2018-09-05T22:04:19.087Z,29.95
2018-09-05T22:06:49.237Z,26.33
2018-09-05T22:09:18.839Z,26.70
2018-09-05T22:11:48.434Z,32.65
2018-09-05T22:14:18.167Z,35.30
2018-09-05T22:16:47.841Z,43.50
2018-09-05T22:19:17.644Z,57.50
2018-09-05T22:21:47.380Z,78.10
2018-09-05T22:24:17.100Z,65.77
2018-09-05T22:26:46.900Z,41.03
2018-09-05T22:29:16.591Z,43.95
2018-09-05T22:31:46.396Z,33.30
2018-09-05T22:34:16.027Z,42.07
2018-09-05T22:36:45.790Z,52.75
2018-09-05T22:39:15.384Z,57.37
2018-09-05T22:41:45.267Z,79.83
2018-09-05T22:44:25.655Z,85.05
2018-09-05T22:47:05.921Z,89.45
2018-09-05T22:51:06.033Z,95.90
2018-09-05T22:53:55.247Z,156.90
2018-09-05T22:57:40.604Z,149.33
2018-09-05T23:02:27.689Z,123.97
2018-09-05T23:05:11.547Z,144.28
2018-09-05T23:07:59.948Z,138.03
2018-09-05T23:10:40.543Z,121.27
2018-09-05T23:13:20.904Z,120.47
2018-09-05T23:16:01.234Z,72.30
2018-09-05T23:18:41.699Z,42.87
2018-09-05T23:21:18.325Z,37.23
2018-09-05T23:23:57.050Z,34.33
2018-09-05T23:26:27.301Z,35.97
2018-09-05T23:28:56.961Z,36.30
2018-09-05T23:31:26.949Z,33.90
2018-09-05T23:33:56.866Z,33.60
2018-09-05T23:36:26.929Z,32.23
2018-09-05T23:38:56.682Z,39.75
2018-09-05T23:41:26.472Z,36.27
2018-09-05T23:43:56.112Z,40.60
2018-09-05T23:46:25.798Z,56.05
2018-09-05T23:48:55.451Z,61.27
2018-09-05T23:51:25.302Z,69.10
2018-09-05T23:53:55.013Z,68.07
2018-09-05T23:56:24.669Z,61.80
2018-09-05T23:58:54.623Z,63.87
